sensor_id;sensor_type;location;lat;lon;timestamp;temperature;humidity
1602;DHT22;794;48.592;9.634;2022-08-04T00:00:57;17.60;1.00
1602;DHT22;794;48.592;9.634;2022-08-04T00:03:34;17.80;1.00
1602;DHT22;794;48.592;9.634;2022-08-04T00:06:13;17.50;1.00
1602;DHT22;794;48.592;9.634;2022-08-04T00:08:44;17.60;1.00
1602;DHT22;794;48.592;9.634;2022-08-04T00:11:15;17.90;1.00
1602;DHT22;794;48.592;9.634;2022-08-04T00:13:51;17.70;1.00
1602;DHT22;794;48.592;9.634;2022-08-04T00:16:22;17.90;1.00
1602;DHT22;794;48.592;9.634;2022-08-04T00:18:52;17.60;1.00
1602;DHT22;794;48.592;9.634;2022-08-04T00:21:22;17.50;1.00
1602;DHT22;794;48.592;9.634;2022-08-04T00:23:51;17.70;1.00
1602;DHT22;794;48.592;9.634;2022-08-04T00:26:22;17.60;1.00
1602;DHT22;794;48.592;9.634;2022-08-04T00:28:50;17.70;1.00
1602;DHT22;794;48.592;9.634;2022-08-04T00:31:18;17.60;1.00
1602;DHT22;794;48.592;9.634;2022-08-04T00:33:47;17.80;1.00
1602;DHT22;794;48.592;9.634;2022-08-04T00:36:16;15.00;1.00
1602;DHT22;794;48.592;9.634;2022-08-04T00:38:43;17.60;1.00
1602;DHT22;794;48.592;9.634;2022-08-04T00:41:18;17.70;1.00
1602;DHT22;794;48.592;9.634;2022-08-04T00:44:01;17.60;1.00
1602;DHT22;794;48.592;9.634;2022-08-04T00:49:39;17.40;1.00
1602;DHT22;794;48.592;9.634;2022-08-04T00:52:21;17.50;1.00
1602;DHT22;794;48.592;9.634;2022-08-04T00:55:01;17.40;1.00
1602;DHT22;794;48.592;9.634;2022-08-04T00:57:36;17.50;1.00
1602;DHT22;794;48.592;9.634;2022-08-04T01:00:08;17.40;1.00
1602;DHT22;794;48.592;9.634;2022-08-04T01:02:38;17.40;1.00
1602;DHT22;794;48.592;9.634;2022-08-04T01:05:17;17.20;1.00
1602;DHT22;794;48.592;9.634;2022-08-04T01:08:00;17.30;1.00
1602;DHT22;794;48.592;9.634;2022-08-04T01:10:40;17.20;1.00
1602;DHT22;794;48.592;9.634;2022-08-04T01:13:33;18.00;1.00
1602;DHT22;794;48.592;9.634;2022-08-04T01:16:04;17.10;1.00
1602;DHT22;794;48.592;9.634;2022-08-04T01:18:45;17.10;1.00
1602;DHT22;794;48.592;9.634;2022-08-04T01:24:24;17.30;1.00
1602;DHT22;794;48.592;9.634;2022-08-04T01:26:54;17.10;1.00
1602;DHT22;794;48.592;9.634;2022-08-04T01:29:26;17.10;1.00
1602;DHT22;794;48.592;9.634;2022-08-04T01:32:02;17.10;1.00
1602;DHT22;794;48.592;9.634;2022-08-04T01:34:33;17.00;1.00
1602;DHT22;794;48.592;9.634;2022-08-04T01:37:07;17.30;1.00
1602;DHT22;794;48.592;9.634;2022-08-04T01:39:43;17.10;1.00
1602;DHT22;794;48.592;9.634;2022-08-04T01:42:17;17.20;1.00
1602;DHT22;794;48.592;9.634;2022-08-04T01:44:47;17.00;1.00
1602;DHT22;794;48.592;9.634;2022-08-04T01:47:19;17.20;1.00
1602;DHT22;794;48.592;9.634;2022-08-04T01:49:49;17.10;1.00
1602;DHT22;794;48.592;9.634;2022-08-04T01:52:17;17.40;1.00
1602;DHT22;794;48.592;9.634;2022-08-04T01:54:46;17.60;1.00
1602;DHT22;794;48.592;9.634;2022-08-04T01:57:16;17.20;1.00
1602;DHT22;794;48.592;9.634;2022-08-04T01:59:46;17.60;1.00
1602;DHT22;794;48.592;9.634;2022-08-04T02:02:17;17.20;1.00
1602;DHT22;794;48.592;9.634;2022-08-04T02:04:47;17.10;1.00
1602;DHT22;794;48.592;9.634;2022-08-04T02:07:31;17.10;1.00
1602;DHT22;794;48.592;9.634;2022-08-04T02:10:05;17.00;1.00
1602;DHT22;794;48.592;9.634;2022-08-04T02:12:44;17.00;1.00
1602;DHT22;794;48.592;9.634;2022-08-04T02:15:25;16.90;1.00
1602;DHT22;794;48.592;9.634;2022-08-04T02:17:59;17.20;1.00
1602;DHT22;794;48.592;9.634;2022-08-04T02:20:30;17.00;1.00
1602;DHT22;794;48.592;9.634;2022-08-04T02:23:00;16.90;1.00
1602;DHT22;794;48.592;9.634;2022-08-04T02:25:31;17.00;1.00
1602;DHT22;794;48.592;9.634;2022-08-04T02:28:11;17.00;1.00
1602;DHT22;794;48.592;9.634;2022-08-04T02:30:52;16.90;1.00
1602;DHT22;794;48.592;9.634;2022-08-04T02:33:25;17.00;1.00
1602;DHT22;794;48.592;9.634;2022-08-04T02:35:58;17.20;1.00
1602;DHT22;794;48.592;9.634;2022-08-04T02:38:35;19.00;1.00
1602;DHT22;794;48.592;9.634;2022-08-04T02:41:08;17.30;1.00
1602;DHT22;794;48.592;9.634;2022-08-04T02:43:36;17.00;1.00
1602;DHT22;794;48.592;9.634;2022-08-04T02:46:06;17.00;1.00
1602;DHT22;794;48.592;9.634;2022-08-04T02:48:34;16.80;1.00
1602;DHT22;794;48.592;9.634;2022-08-04T02:51:02;16.90;1.00
1602;DHT22;794;48.592;9.634;2022-08-04T02:53:32;17.20;1.00
1602;DHT22;794;48.592;9.634;2022-08-04T02:56:03;17.00;1.00
1602;DHT22;794;48.592;9.634;2022-08-04T02:58:34;16.80;1.00
1602;DHT22;794;48.592;9.634;2022-08-04T03:01:01;16.90;1.00
1602;DHT22;794;48.592;9.634;2022-08-04T03:03:39;17.00;1.00
1602;DHT22;794;48.592;9.634;2022-08-04T03:06:27;16.70;1.00
1602;DHT22;794;48.592;9.634;2022-08-04T03:09:12;17.00;1.00
1602;DHT22;794;48.592;9.634;2022-08-04T03:12:01;16.90;1.00
1602;DHT22;794;48.592;9.634;2022-08-04T03:24:43;16.70;1.00
1602;DHT22;794;48.592;9.634;2022-08-04T03:30:11;16.40;1.00
1602;DHT22;794;48.592;9.634;2022-08-04T03:33:23;17.00;1.00
1602;DHT22;794;48.592;9.634;2022-08-04T03:42:44;16.50;1.00
1602;DHT22;794;48.592;9.634;2022-08-04T03:48:45;16.40;1.00
1602;DHT22;794;48.592;9.634;2022-08-04T03:51:34;16.50;1.00
1602;DHT22;794;48.592;9.634;2022-08-04T03:58:07;16.40;1.00
1602;DHT22;794;48.592;9.634;2022-08-04T04:00:47;16.40;1.00
1602;DHT22;794;48.592;9.634;2022-08-04T04:03:34;16.50;1.00
1602;DHT22;794;48.592;9.634;2022-08-04T04:06:29;16.80;1.00
1602;DHT22;794;48.592;9.634;2022-08-04T04:09:11;16.40;1.00
1602;DHT22;794;48.592;9.634;2022-08-04T04:12:13;16.80;1.00
1602;DHT22;794;48.592;9.634;2022-08-04T04:15:18;16.70;1.00
1602;DHT22;794;48.592;9.634;2022-08-04T04:18:10;16.50;1.00
1602;DHT22;794;48.592;9.634;2022-08-04T04:20:55;16.50;1.00
1602;DHT22;794;48.592;9.634;2022-08-04T04:23:51;16.50;1.00
1602;DHT22;794;48.592;9.634;2022-08-04T04:27:07;16.60;1.00
1602;DHT22;794;48.592;9.634;2022-08-04T04:30:00;16.80;1.00
1602;DHT22;794;48.592;9.634;2022-08-04T04:32:37;16.60;1.00
1602;DHT22;794;48.592;9.634;2022-08-04T04:35:22;16.70;1.00
1602;DHT22;794;48.592;9.634;2022-08-04T04:38:20;16.70;1.00
1602;DHT22;794;48.592;9.634;2022-08-04T04:41:03;16.70;1.00
1602;DHT22;794;48.592;9.634;2022-08-04T04:43:56;17.20;1.00
1602;DHT22;794;48.592;9.634;2022-08-04T04:46:33;16.80;1.00
1602;DHT22;794;48.592;9.634;2022-08-04T04:51:54;17.30;1.00
1602;DHT22;794;48.592;9.634;2022-08-04T04:54:40;17.20;1.00
1602;DHT22;794;48.592;9.634;2022-08-04T04:57:13;17.10;1.00
1602;DHT22;794;48.592;9.634;2022-08-04T04:59:48;17.30;1.00
1602;DHT22;794;48.592;9.634;2022-08-04T05:05:43;17.20;1.00
1602;DHT22;794;48.592;9.634;2022-08-04T05:08:50;17.10;1.00
1602;DHT22;794;48.592;9.634;2022-08-04T05:14:30;17.60;1.00
1602;DHT22;794;48.592;9.634;2022-08-04T05:17:05;17.80;1.00
1602;DHT22;794;48.592;9.634;2022-08-04T05:19:45;18.10;1.00
1602;DHT22;794;48.592;9.634;2022-08-04T05:22:21;18.10;1.00
1602;DHT22;794;48.592;9.634;2022-08-04T05:24:59;18.20;1.00
1602;DHT22;794;48.592;9.634;2022-08-04T05:27:32;18.30;1.00
1602;DHT22;794;48.592;9.634;2022-08-04T05:30:04;18.60;1.00
1602;DHT22;794;48.592;9.634;2022-08-04T05:32:37;18.60;1.00
1602;DHT22;794;48.592;9.634;2022-08-04T05:35:09;18.80;1.00
1602;DHT22;794;48.592;9.634;2022-08-04T05:37:39;19.10;1.00
1602;DHT22;794;48.592;9.634;2022-08-04T05:40:08;19.00;1.00
1602;DHT22;794;48.592;9.634;2022-08-04T05:42:38;19.10;1.00
1602;DHT22;794;48.592;9.634;2022-08-04T05:45:07;19.20;1.00
1602;DHT22;794;48.592;9.634;2022-08-04T05:47:36;19.40;1.00
1602;DHT22;794;48.592;9.634;2022-08-04T05:50:05;19.50;1.00
1602;DHT22;794;48.592;9.634;2022-08-04T05:52:34;19.60;1.00
1602;DHT22;794;48.592;9.634;2022-08-04T05:55:02;19.80;1.00
1602;DHT22;794;48.592;9.634;2022-08-04T05:57:30;20.00;1.00
1602;DHT22;794;48.592;9.634;2022-08-04T06:00:00;20.10;1.00
1602;DHT22;794;48.592;9.634;2022-08-04T06:02:29;20.30;1.00
1602;DHT22;794;48.592;9.634;2022-08-04T06:05:00;20.30;1.00
1602;DHT22;794;48.592;9.634;2022-08-04T06:09:55;20.60;1.00
1602;DHT22;794;48.592;9.634;2022-08-04T06:12:24;20.70;1.00
1602;DHT22;794;48.592;9.634;2022-08-04T06:14:55;20.80;1.00
1602;DHT22;794;48.592;9.634;2022-08-04T06:17:27;21.20;1.00
1602;DHT22;794;48.592;9.634;2022-08-04T06:22:26;21.20;1.00
1602;DHT22;794;48.592;9.634;2022-08-04T06:24:56;19.50;1.00
1602;DHT22;794;48.592;9.634;2022-08-04T06:27:24;21.70;1.00
1602;DHT22;794;48.592;9.634;2022-08-04T06:29:54;21.80;1.00
1602;DHT22;794;48.592;9.634;2022-08-04T06:32:24;22.10;1.00
1602;DHT22;794;48.592;9.634;2022-08-04T06:34:54;22.30;1.00
1602;DHT22;794;48.592;9.634;2022-08-04T06:37:24;22.30;1.00
1602;DHT22;794;48.592;9.634;2022-08-04T06:39:52;23.00;1.00
1602;DHT22;794;48.592;9.634;2022-08-04T06:42:21;26.10;1.00
1602;DHT22;794;48.592;9.634;2022-08-04T06:44:51;29.80;1.00
1602;DHT22;794;48.592;9.634;2022-08-04T06:47:22;33.20;1.00
1602;DHT22;794;48.592;9.634;2022-08-04T06:49:51;37.60;1.00
1602;DHT22;794;48.592;9.634;2022-08-04T06:52:19;38.90;1.00
1602;DHT22;794;48.592;9.634;2022-08-04T06:54:50;40.30;1.00
1602;DHT22;794;48.592;9.634;2022-08-04T06:57:23;41.30;1.00
1602;DHT22;794;48.592;9.634;2022-08-04T06:59:56;41.40;1.00
1602;DHT22;794;48.592;9.634;2022-08-04T07:02:26;41.80;1.00
1602;DHT22;794;48.592;9.634;2022-08-04T07:07:23;41.60;1.00
1602;DHT22;794;48.592;9.634;2022-08-04T07:09:52;41.60;1.00
1602;DHT22;794;48.592;9.634;2022-08-04T07:12:20;42.50;1.00
1602;DHT22;794;48.592;9.634;2022-08-04T07:24:41;44.70;1.00
1602;DHT22;794;48.592;9.634;2022-08-04T07:27:09;45.90;1.00
1602;DHT22;794;48.592;9.634;2022-08-04T07:29:37;46.10;1.00
1602;DHT22;794;48.592;9.634;2022-08-04T07:34:37;46.70;1.00
1602;DHT22;794;48.592;9.634;2022-08-04T07:44:31;49.60;1.00
1602;DHT22;794;48.592;9.634;2022-08-04T07:51:54;49.80;1.00
1602;DHT22;794;48.592;9.634;2022-08-04T07:54:24;50.00;1.00
1602;DHT22;794;48.592;9.634;2022-08-04T08:01:48;48.60;1.00
1602;DHT22;794;48.592;9.634;2022-08-04T08:06:45;40.90;1.00
1602;DHT22;794;48.592;9.634;2022-08-04T08:09:14;42.90;1.00
1602;DHT22;794;48.592;9.634;2022-08-04T08:11:45;40.90;1.00
1602;DHT22;794;48.592;9.634;2022-08-04T08:19:10;38.40;1.00
1602;DHT22;794;48.592;9.634;2022-08-04T08:21:45;38.50;1.00
1602;DHT22;794;48.592;9.634;2022-08-04T08:24:19;38.20;1.00
1602;DHT22;794;48.592;9.634;2022-08-04T08:34:17;38.60;1.00
1602;DHT22;794;48.592;9.634;2022-08-04T08:36:56;36.20;1.00
1602;DHT22;794;48.592;9.634;2022-08-04T08:39:28;36.40;1.00
1602;DHT22;794;48.592;9.634;2022-08-04T08:42:19;37.30;1.00
1602;DHT22;794;48.592;9.634;2022-08-04T08:45:29;38.10;1.00
1602;DHT22;794;48.592;9.634;2022-08-04T08:48:32;37.60;1.00
1602;DHT22;794;48.592;9.634;2022-08-04T08:51:46;37.30;1.00
1602;DHT22;794;48.592;9.634;2022-08-04T08:54:43;35.10;1.00
1602;DHT22;794;48.592;9.634;2022-08-04T08:57:36;37.50;1.00
1602;DHT22;794;48.592;9.634;2022-08-04T09:00:31;38.00;1.00
1602;DHT22;794;48.592;9.634;2022-08-04T09:03:23;39.10;1.00
1602;DHT22;794;48.592;9.634;2022-08-04T09:09:07;38.20;1.00
1602;DHT22;794;48.592;9.634;2022-08-04T09:11:40;40.90;1.00
1602;DHT22;794;48.592;9.634;2022-08-04T09:14:16;39.70;1.00
1602;DHT22;794;48.592;9.634;2022-08-04T09:16:50;41.20;1.00
1602;DHT22;794;48.592;9.634;2022-08-04T09:19:23;38.90;1.00
1602;DHT22;794;48.592;9.634;2022-08-04T09:21:59;39.10;1.00
1602;DHT22;794;48.592;9.634;2022-08-04T09:24:47;38.50;1.00
1602;DHT22;794;48.592;9.634;2022-08-04T09:27:18;40.20;1.00
1602;DHT22;794;48.592;9.634;2022-08-04T09:29:55;39.70;1.00
1602;DHT22;794;48.592;9.634;2022-08-04T09:32:31;39.00;1.00
1602;DHT22;794;48.592;9.634;2022-08-04T09:35:09;39.30;1.00
1602;DHT22;794;48.592;9.634;2022-08-04T09:37:43;40.10;1.00
1602;DHT22;794;48.592;9.634;2022-08-04T09:40:20;41.20;1.00
1602;DHT22;794;48.592;9.634;2022-08-04T09:42:55;41.70;1.00
1602;DHT22;794;48.592;9.634;2022-08-04T09:45:35;42.40;1.00
1602;DHT22;794;48.592;9.634;2022-08-04T09:48:07;43.00;1.00
1602;DHT22;794;48.592;9.634;2022-08-04T09:50:38;41.30;1.00
1602;DHT22;794;48.592;9.634;2022-08-04T09:53:14;42.20;1.00
1602;DHT22;794;48.592;9.634;2022-08-04T09:55:54;42.60;1.00
1602;DHT22;794;48.592;9.634;2022-08-04T09:58:32;43.20;1.00
1602;DHT22;794;48.592;9.634;2022-08-04T10:01:09;42.40;1.00
1602;DHT22;794;48.592;9.634;2022-08-04T10:03:41;41.40;1.00
1602;DHT22;794;48.592;9.634;2022-08-04T10:06:19;41.30;1.00
1602;DHT22;794;48.592;9.634;2022-08-04T10:09:05;39.40;1.00
1602;DHT22;794;48.592;9.634;2022-08-04T10:11:52;37.70;1.00
1602;DHT22;794;48.592;9.634;2022-08-04T10:14:36;36.90;1.00
1602;DHT22;794;48.592;9.634;2022-08-04T10:17:15;36.80;1.00
1602;DHT22;794;48.592;9.634;2022-08-04T10:19:52;35.90;1.00
1602;DHT22;794;48.592;9.634;2022-08-04T10:22:25;35.40;1.00
1602;DHT22;794;48.592;9.634;2022-08-04T10:25:01;35.00;1.00
1602;DHT22;794;48.592;9.634;2022-08-04T10:27:35;34.70;1.00
1602;DHT22;794;48.592;9.634;2022-08-04T10:30:06;34.50;1.00
1602;DHT22;794;48.592;9.634;2022-08-04T10:32:42;34.20;1.00
1602;DHT22;794;48.592;9.634;2022-08-04T10:35:13;33.90;1.00
1602;DHT22;794;48.592;9.634;2022-08-04T10:37:47;34.40;1.00
1602;DHT22;794;48.592;9.634;2022-08-04T10:40:20;35.40;1.00
1602;DHT22;794;48.592;9.634;2022-08-04T10:43:11;36.40;1.00
1602;DHT22;794;48.592;9.634;2022-08-04T10:45:45;36.50;1.00
1602;DHT22;794;48.592;9.634;2022-08-04T10:48:21;35.90;1.00
1602;DHT22;794;48.592;9.634;2022-08-04T10:51:03;35.40;1.00
1602;DHT22;794;48.592;9.634;2022-08-04T10:53:34;34.90;1.00
1602;DHT22;794;48.592;9.634;2022-08-04T10:56:08;30.00;1.00
1602;DHT22;794;48.592;9.634;2022-08-04T10:58:45;33.70;1.00
1602;DHT22;794;48.592;9.634;2022-08-04T11:01:21;34.10;1.00
1602;DHT22;794;48.592;9.634;2022-08-04T11:03:55;34.40;1.00
1602;DHT22;794;48.592;9.634;2022-08-04T11:06:23;34.70;1.00
1602;DHT22;794;48.592;9.634;2022-08-04T11:08:53;34.40;1.00
1602;DHT22;794;48.592;9.634;2022-08-04T11:11:25;34.30;1.00
1602;DHT22;794;48.592;9.634;2022-08-04T11:14:01;33.70;1.00
1602;DHT22;794;48.592;9.634;2022-08-04T11:16:38;33.80;1.00
1602;DHT22;794;48.592;9.634;2022-08-04T11:19:19;34.00;1.00
1602;DHT22;794;48.592;9.634;2022-08-04T11:21:55;34.00;1.00
1602;DHT22;794;48.592;9.634;2022-08-04T11:24:34;34.10;1.00
1602;DHT22;794;48.592;9.634;2022-08-04T11:27:05;34.40;1.00
1602;DHT22;794;48.592;9.634;2022-08-04T11:29:40;34.20;1.00
1602;DHT22;794;48.592;9.634;2022-08-04T11:32:17;33.90;1.00
1602;DHT22;794;48.592;9.634;2022-08-04T11:34:48;33.40;1.00
1602;DHT22;794;48.592;9.634;2022-08-04T11:37:21;33.40;1.00
1602;DHT22;794;48.592;9.634;2022-08-04T11:39:51;33.60;1.00
1602;DHT22;794;48.592;9.634;2022-08-04T11:42:22;33.80;1.00
1602;DHT22;794;48.592;9.634;2022-08-04T11:44:58;33.50;1.00
1602;DHT22;794;48.592;9.634;2022-08-04T11:47:28;33.20;1.00
1602;DHT22;794;48.592;9.634;2022-08-04T11:50:02;33.10;1.00
1602;DHT22;794;48.592;9.634;2022-08-04T11:52:31;33.10;1.00
1602;DHT22;794;48.592;9.634;2022-08-04T11:55:03;32.90;1.00
1602;DHT22;794;48.592;9.634;2022-08-04T12:00:02;33.20;1.00
1602;DHT22;794;48.592;9.634;2022-08-04T12:03:05;33.20;1.00
1602;DHT22;794;48.592;9.634;2022-08-04T12:05:40;32.90;1.00
1602;DHT22;794;48.592;9.634;2022-08-04T12:08:25;33.00;1.00
1602;DHT22;794;48.592;9.634;2022-08-04T12:11:07;32.80;1.00
1602;DHT22;794;48.592;9.634;2022-08-04T12:13:39;32.70;1.00
1602;DHT22;794;48.592;9.634;2022-08-04T12:16:14;32.80;1.00
1602;DHT22;794;48.592;9.634;2022-08-04T12:18:46;32.70;1.00
1602;DHT22;794;48.592;9.634;2022-08-04T12:21:22;33.00;1.00
1602;DHT22;794;48.592;9.634;2022-08-04T12:23:52;33.10;1.00
1602;DHT22;794;48.592;9.634;2022-08-04T12:26:26;33.20;1.00
1602;DHT22;794;48.592;9.634;2022-08-04T12:28:59;33.00;1.00
1602;DHT22;794;48.592;9.634;2022-08-04T12:31:35;32.80;1.00
1602;DHT22;794;48.592;9.634;2022-08-04T12:34:08;32.90;1.00
1602;DHT22;794;48.592;9.634;2022-08-04T12:36:39;33.30;1.00
1602;DHT22;794;48.592;9.634;2022-08-04T12:39:11;33.00;1.00
1602;DHT22;794;48.592;9.634;2022-08-04T12:41:47;32.90;1.00
1602;DHT22;794;48.592;9.634;2022-08-04T12:44:19;33.00;1.00
1602;DHT22;794;48.592;9.634;2022-08-04T12:46:48;33.20;1.00
1602;DHT22;794;48.592;9.634;2022-08-04T12:51:44;33.00;1.00
1602;DHT22;794;48.592;9.634;2022-08-04T12:56:39;32.70;1.00
1602;DHT22;794;48.592;9.634;2022-08-04T12:59:09;32.80;1.00
1602;DHT22;794;48.592;9.634;2022-08-04T13:01:38;32.90;1.00
1602;DHT22;794;48.592;9.634;2022-08-04T13:04:14;32.90;1.00
1602;DHT22;794;48.592;9.634;2022-08-04T13:06:42;32.90;1.00
1602;DHT22;794;48.592;9.634;2022-08-04T13:09:15;32.90;1.00
1602;DHT22;794;48.592;9.634;2022-08-04T13:11:48;32.80;1.00
1602;DHT22;794;48.592;9.634;2022-08-04T13:14:17;32.90;1.00
1602;DHT22;794;48.592;9.634;2022-08-04T13:19:13;32.80;1.00
1602;DHT22;794;48.592;9.634;2022-08-04T13:21:43;32.70;1.00
1602;DHT22;794;48.592;9.634;2022-08-04T13:24:14;32.40;1.00
1602;DHT22;794;48.592;9.634;2022-08-04T13:26:49;32.30;1.00
1602;DHT22;794;48.592;9.634;2022-08-04T13:29:17;32.40;1.00
1602;DHT22;794;48.592;9.634;2022-08-04T13:31:46;32.40;1.00
1602;DHT22;794;48.592;9.634;2022-08-04T13:34:15;32.10;1.00
1602;DHT22;794;48.592;9.634;2022-08-04T13:36:44;32.20;1.00
1602;DHT22;794;48.592;9.634;2022-08-04T13:39:15;32.30;1.00
1602;DHT22;794;48.592;9.634;2022-08-04T13:41:45;32.40;1.00
1602;DHT22;794;48.592;9.634;2022-08-04T13:44:18;32.30;1.00
1602;DHT22;794;48.592;9.634;2022-08-04T13:46:48;32.20;1.00
1602;DHT22;794;48.592;9.634;2022-08-04T13:49:18;32.20;1.00
1602;DHT22;794;48.592;9.634;2022-08-04T13:51:48;32.20;1.00
1602;DHT22;794;48.592;9.634;2022-08-04T13:56:47;32.30;1.00
1602;DHT22;794;48.592;9.634;2022-08-04T13:59:17;32.50;1.00
1602;DHT22;794;48.592;9.634;2022-08-04T14:01:55;32.50;1.00
1602;DHT22;794;48.592;9.634;2022-08-04T14:04:25;33.30;1.00
1602;DHT22;794;48.592;9.634;2022-08-04T14:07:02;32.40;1.00
1602;DHT22;794;48.592;9.634;2022-08-04T14:09:33;32.50;1.00
1602;DHT22;794;48.592;9.634;2022-08-04T14:12:05;32.40;1.00
1602;DHT22;794;48.592;9.634;2022-08-04T14:14:35;32.40;1.00
1602;DHT22;794;48.592;9.634;2022-08-04T14:17:04;32.30;1.00
1602;DHT22;794;48.592;9.634;2022-08-04T14:19:51;32.30;1.00
1602;DHT22;794;48.592;9.634;2022-08-04T14:22:36;32.50;1.00
1602;DHT22;794;48.592;9.634;2022-08-04T14:25:08;32.40;1.00
1602;DHT22;794;48.592;9.634;2022-08-04T14:27:45;32.50;1.00
1602;DHT22;794;48.592;9.634;2022-08-04T14:30:25;32.50;1.00
1602;DHT22;794;48.592;9.634;2022-08-04T14:32:55;32.30;1.00
1602;DHT22;794;48.592;9.634;2022-08-04T14:35:25;32.40;1.00
1602;DHT22;794;48.592;9.634;2022-08-04T14:37:59;32.10;1.00
1602;DHT22;794;48.592;9.634;2022-08-04T14:40:28;32.20;1.00
1602;DHT22;794;48.592;9.634;2022-08-04T14:45:30;31.80;1.00
1602;DHT22;794;48.592;9.634;2022-08-04T14:47:58;32.60;1.00
1602;DHT22;794;48.592;9.634;2022-08-04T14:50:36;32.90;1.00
1602;DHT22;794;48.592;9.634;2022-08-04T14:53:05;32.60;1.00
1602;DHT22;794;48.592;9.634;2022-08-04T14:55:35;32.60;1.00
1602;DHT22;794;48.592;9.634;2022-08-04T15:00:32;32.30;1.00
1602;DHT22;794;48.592;9.634;2022-08-04T15:03:02;32.40;1.00
1602;DHT22;794;48.592;9.634;2022-08-04T15:08:00;32.30;1.00
1602;DHT22;794;48.592;9.634;2022-08-04T15:10:27;32.90;1.00
1602;DHT22;794;48.592;9.634;2022-08-04T15:15:22;32.20;1.00
1602;DHT22;794;48.592;9.634;2022-08-04T15:17:50;32.20;1.00
1602;DHT22;794;48.592;9.634;2022-08-04T15:22:45;32.10;1.00
1602;DHT22;794;48.592;9.634;2022-08-04T15:25:14;32.00;1.00
1602;DHT22;794;48.592;9.634;2022-08-04T15:27:41;32.00;1.00
1602;DHT22;794;48.592;9.634;2022-08-04T15:30:11;30.80;1.00
1602;DHT22;794;48.592;9.634;2022-08-04T15:32:51;31.90;1.00
1602;DHT22;794;48.592;9.634;2022-08-04T15:35:21;31.90;1.00
1602;DHT22;794;48.592;9.634;2022-08-04T15:37:57;31.80;1.00
1602;DHT22;794;48.592;9.634;2022-08-04T15:40:35;31.80;1.00
1602;DHT22;794;48.592;9.634;2022-08-04T15:43:18;31.70;1.00
1602;DHT22;794;48.592;9.634;2022-08-04T15:45:51;31.70;1.00
1602;DHT22;794;48.592;9.634;2022-08-04T15:48:23;31.60;1.00
1602;DHT22;794;48.592;9.634;2022-08-04T15:51:11;31.60;1.00
1602;DHT22;794;48.592;9.634;2022-08-04T15:56:45;31.80;1.00
1602;DHT22;794;48.592;9.634;2022-08-04T15:59:12;31.50;1.00
1602;DHT22;794;48.592;9.634;2022-08-04T16:04:22;31.50;1.00
1602;DHT22;794;48.592;9.634;2022-08-04T16:06:50;31.50;1.00
1602;DHT22;794;48.592;9.634;2022-08-04T16:09:25;31.40;1.00
1602;DHT22;794;48.592;9.634;2022-08-04T16:11:53;31.50;1.00
1602;DHT22;794;48.592;9.634;2022-08-04T16:14:34;31.70;1.00
1602;DHT22;794;48.592;9.634;2022-08-04T16:17:17;32.00;1.00
1602;DHT22;794;48.592;9.634;2022-08-04T16:20:00;32.10;1.00
1602;DHT22;794;48.592;9.634;2022-08-04T16:22:33;31.30;1.00
1602;DHT22;794;48.592;9.634;2022-08-04T16:25:00;31.30;1.00
1602;DHT22;794;48.592;9.634;2022-08-04T16:27:40;31.40;1.00
1602;DHT22;794;48.592;9.634;2022-08-04T16:30:10;33.80;1.00
1602;DHT22;794;48.592;9.634;2022-08-04T16:32:41;31.00;1.00
1602;DHT22;794;48.592;9.634;2022-08-04T16:35:24;31.10;1.00
1602;DHT22;794;48.592;9.634;2022-08-04T16:37:54;30.90;1.00
1602;DHT22;794;48.592;9.634;2022-08-04T16:40:37;30.70;1.00
1602;DHT22;794;48.592;9.634;2022-08-04T16:43:11;30.70;1.00
1602;DHT22;794;48.592;9.634;2022-08-04T16:45:50;30.60;1.00
1602;DHT22;794;48.592;9.634;2022-08-04T16:48:24;30.70;1.00
1602;DHT22;794;48.592;9.634;2022-08-04T16:50:56;31.00;1.00
1602;DHT22;794;48.592;9.634;2022-08-04T16:53:26;30.50;1.00
1602;DHT22;794;48.592;9.634;2022-08-04T16:55:54;30.60;1.00
1602;DHT22;794;48.592;9.634;2022-08-04T16:58:31;30.20;1.00
1602;DHT22;794;48.592;9.634;2022-08-04T17:01:08;30.50;1.00
1602;DHT22;794;48.592;9.634;2022-08-04T17:03:36;30.10;1.00
1602;DHT22;794;48.592;9.634;2022-08-04T17:06:09;30.00;1.00
1602;DHT22;794;48.592;9.634;2022-08-04T17:08:37;30.00;1.00
1602;DHT22;794;48.592;9.634;2022-08-04T17:11:05;29.80;1.00
1602;DHT22;794;48.592;9.634;2022-08-04T17:13:39;29.70;1.00
1602;DHT22;794;48.592;9.634;2022-08-04T17:16:08;29.60;1.00
1602;DHT22;794;48.592;9.634;2022-08-04T17:18:37;29.50;1.00
1602;DHT22;794;48.592;9.634;2022-08-04T17:21:07;29.50;1.00
1602;DHT22;794;48.592;9.634;2022-08-04T17:23:37;30.00;1.00
1602;DHT22;794;48.592;9.634;2022-08-04T17:26:10;29.40;1.00
1602;DHT22;794;48.592;9.634;2022-08-04T17:28:39;29.30;1.00
1602;DHT22;794;48.592;9.634;2022-08-04T17:31:09;29.00;1.00
1602;DHT22;794;48.592;9.634;2022-08-04T17:33:37;29.70;1.00
1602;DHT22;794;48.592;9.634;2022-08-04T17:36:05;29.00;1.00
1602;DHT22;794;48.592;9.634;2022-08-04T17:38:36;28.90;1.00
1602;DHT22;794;48.592;9.634;2022-08-04T17:41:06;28.70;1.00
1602;DHT22;794;48.592;9.634;2022-08-04T17:43:41;28.80;1.00
1602;DHT22;794;48.592;9.634;2022-08-04T17:46:19;28.60;1.00
1602;DHT22;794;48.592;9.634;2022-08-04T17:48:58;28.30;1.00
1602;DHT22;794;48.592;9.634;2022-08-04T17:51:39;28.30;1.00
1602;DHT22;794;48.592;9.634;2022-08-04T17:54:08;28.20;1.00
1602;DHT22;794;48.592;9.634;2022-08-04T17:56:39;28.00;1.00
1602;DHT22;794;48.592;9.634;2022-08-04T17:59:09;28.00;1.00
1602;DHT22;794;48.592;9.634;2022-08-04T18:01:52;27.90;1.00
1602;DHT22;794;48.592;9.634;2022-08-04T18:04:31;28.50;1.00
1602;DHT22;794;48.592;9.634;2022-08-04T18:07:00;27.90;1.00
1602;DHT22;794;48.592;9.634;2022-08-04T18:09:29;27.60;1.00
1602;DHT22;794;48.592;9.634;2022-08-04T18:11:59;27.70;1.00
1602;DHT22;794;48.592;9.634;2022-08-04T18:14:37;27.40;1.00
1602;DHT22;794;48.592;9.634;2022-08-04T18:17:04;27.10;1.00
1602;DHT22;794;48.592;9.634;2022-08-04T18:19:32;27.00;1.00
1602;DHT22;794;48.592;9.634;2022-08-04T18:21:59;27.70;1.00
1602;DHT22;794;48.592;9.634;2022-08-04T18:24:27;26.70;1.00
1602;DHT22;794;48.592;9.634;2022-08-04T18:26:54;26.70;1.00
1602;DHT22;794;48.592;9.634;2022-08-04T18:29:21;26.00;1.00
1602;DHT22;794;48.592;9.634;2022-08-04T18:31:50;27.20;1.00
1602;DHT22;794;48.592;9.634;2022-08-04T18:34:17;26.20;1.00
1602;DHT22;794;48.592;9.634;2022-08-04T18:36:44;26.40;1.00
1602;DHT22;794;48.592;9.634;2022-08-04T18:46:33;25.70;1.00
1602;DHT22;794;48.592;9.634;2022-08-04T18:49:01;25.80;1.00
1602;DHT22;794;48.592;9.634;2022-08-04T18:51:28;25.70;1.00
1602;DHT22;794;48.592;9.634;2022-08-04T18:53:55;25.60;1.00
1602;DHT22;794;48.592;9.634;2022-08-04T18:56:23;25.90;1.00
1602;DHT22;794;48.592;9.634;2022-08-04T18:58:50;25.40;1.00
1602;DHT22;794;48.592;9.634;2022-08-04T19:01:17;25.30;1.00
1602;DHT22;794;48.592;9.634;2022-08-04T19:03:44;25.80;1.00
1602;DHT22;794;48.592;9.634;2022-08-04T19:06:12;24.80;1.00
1602;DHT22;794;48.592;9.634;2022-08-04T19:13:34;24.70;1.00
1602;DHT22;794;48.592;9.634;2022-08-04T19:16:03;22.50;1.00
1602;DHT22;794;48.592;9.634;2022-08-04T19:18:30;25.00;1.00
1602;DHT22;794;48.592;9.634;2022-08-04T19:20:58;24.40;1.00
1602;DHT22;794;48.592;9.634;2022-08-04T19:23:26;24.30;1.00
1602;DHT22;794;48.592;9.634;2022-08-04T19:30:51;24.00;1.00
1602;DHT22;794;48.592;9.634;2022-08-04T19:33:19;24.00;1.00
1602;DHT22;794;48.592;9.634;2022-08-04T19:38:17;24.00;1.00
1602;DHT22;794;48.592;9.634;2022-08-04T19:40:48;23.20;1.00
1602;DHT22;794;48.592;9.634;2022-08-04T19:45:42;23.60;1.00
1602;DHT22;794;48.592;9.634;2022-08-04T19:48:09;23.70;1.00
1602;DHT22;794;48.592;9.634;2022-08-04T19:50:36;23.90;1.00